Tuesday, November 21, 2017, 3:42 PM GMT
Back to Local

CWWB, Burlington Piers

Location: , , Canada Lat: 43.3
Local Time: 3:42 PM GMT (15:42 GMT) Lon: -79.8
Time Zone: GMT Elev: 252 ft

Show me the last for .
Show Coded

Time T Td Feel RH Dir Speed Gust Alt SLP Vis Weather Sky Remarks
2017-11-21 15:00 49 31 42 48 170° 16 26 - 29.69 0 Peak wind: 29 mph (26 kts) from 160° at 04 min
2017-11-21 14:00 47 31 39 52 130° 16 26 - 29.70 0 Peak wind: 27 mph (24 kts) from 130° at 36 min
2017-11-21 13:00 46 32 37 58 140° 16 23 - 29.69 0 Peak wind: 27 mph (24 kts) from 130° at 02 min
2017-11-21 12:00 45 31 37 56 160° 16 23 - 29.71 0 Peak wind: 28 mph (25 kts) from 140° at 08 min
2017-11-21 11:00 45 30 36 56 160° 18 26 - 29.72 0 Peak wind: 26 mph (23 kts) from 160° at 58 min
2017-11-21 10:00 45 31 35 57 150° 17 26 - 29.75 0 Peak wind: 27 mph (24 kts) from 140° at 40 min
2017-11-21 09:00 44 31 35 59 140° 16 28 - 29.76 0 Peak wind: 27 mph (24 kts) from 60° at 53 min
2017-11-21 08:00 44 33 35 64 140° 15 23 - 29.78 0 Peak wind: 23 mph (20 kts) from 160° at 59 min
2017-11-21 07:00 44 31 35 58 130° 16 25 - 29.80 0 Peak wind: 25 mph (22 kts) from 90° at 50 min
2017-11-21 06:00 44 32 35 60 140° 16 28 - 29.80 0 Peak wind: 27 mph (24 kts) from 80° at 59 min
2017-11-21 05:00 44 31 37 60 150° 15 - - 29.83 0 Peak wind: 21 mph (19 kts) from 160° at 41 min
2017-11-21 04:00 44 31 35 60 140° 15 23 - 29.83 0 Peak wind: 23 mph (20 kts) from 10° at 55 min
2017-11-21 03:00 45 33 36 63 140° 15 21 - 29.85 0 Peak wind: 23 mph (20 kts) from 150° at 24 min
2017-11-21 02:00 45 31 36 56 140° 16 24 - 29.87 0 Peak wind: 27 mph (24 kts) from 180° at 37 min
2017-11-21 01:00 45 32 37 59 120° 13 18 - 29.88 0 Peak wind: 20 mph (18 kts) from 140° at 32 min
2017-11-21 00:00 44 32 39 60 120° 10 - - 29.89 0 None
2017-11-20 23:00 44 32 39 60 110° 10 - - 29.89 0 None
2017-11-20 22:00 45 31 37 58 130° 14 20 - 29.89 0 Peak wind: 20 mph (18 kts) from 150° at 19 min
2017-11-20 21:00 45 31 37 58 140° 14 22 - 29.90 0 Peak wind: 21 mph (19 kts) from 140° at 51 min
2017-11-20 20:00 46 31 38 57 110° 12 20 - 29.90 0 Peak wind: 24 mph (21 kts) from 110° at 39 min
2017-11-20 19:00 45 31 41 57 110° 8 - - 29.92 0 None
2017-11-20 18:00 42 31 37 64 160° 7 - - 29.93 0 None
2017-11-20 17:00 37 29 30 75 180° 8 - - 29.97 0 None
2017-11-20 16:00 37 29 30 72 130° 9 - - 29.99 0 None

Support USWX by starting your Amazon purchase here.